Time;durP1;ratioP1;P1;durP2;ratioP2;P2;SDS_P1;SDS_P2;PMS_P1;PMS_P2;Temp;Humidity;BMP_temperature;BMP_pressure;BME280_temperature;BME280_humidity;BME280_pressure;Samples;Min_cycle;Max_cycle;Signal;HPM_P1;HPM_P2
2022/09/12 00:02:14;;;;;;;3.40;2.13;;;;;;;14.16;77.46;93763.13;5143723;28;20282;-75
2022/09/12 00:04:39;;;;;;;4.43;2.67;;;;;;;14.17;76.83;93758.56;5143700;28;20054;-75
2022/09/12 00:07:05;;;;;;;4.35;2.55;;;;;;;14.17;76.42;93756.66;5143918;28;20026;-75
2022/09/12 00:09:30;;;;;;;4.47;2.50;;;;;;;14.13;76.00;93766.50;5143927;27;20328;-75
2022/09/12 00:11:56;;;;;;;7.38;2.22;;;;;;;14.09;75.64;93757.56;5143545;27;20313;-75
2022/09/12 00:14:21;;;;;;;6.35;2.30;;;;;;;14.01;75.68;93777.22;5143784;27;20055;-76
2022/09/12 00:16:46;;;;;;;3.92;2.20;;;;;;;14.05;74.90;93775.44;5143700;27;20094;-75
2022/09/12 00:19:12;;;;;;;5.13;1.65;;;;;;;14.04;74.51;93776.53;5143793;28;20067;-75
2022/09/12 00:21:38;;;;;;;3.15;1.90;;;;;;;14.00;74.71;93779.13;5143471;27;20083;-75
2022/09/12 00:24:05;;;;;;;5.30;2.20;;;;;;;14.00;73.80;93779.13;5143790;28;20019;-76
2022/09/12 00:26:31;;;;;;;3.65;2.15;;;;;;;13.91;73.78;93781.13;5143827;27;20019;-75
2022/09/12 00:28:56;;;;;;;4.38;2.22;;;;;;;13.94;75.30;93774.31;5143540;27;20023;-75
2022/09/12 00:31:23;;;;;;;3.83;2.13;;;;;;;13.98;74.44;93776.00;5143454;27;20027;-76
2022/09/12 00:33:49;;;;;;;5.45;2.15;;;;;;;13.96;73.48;93774.75;5143481;28;20023;-75
2022/09/12 02:09:58;;;;;;;2.83;1.27;;;;;;;13.54;70.50;93748.22;5161633;27;20384;-74
2022/09/12 02:12:28;;;;;;;2.35;1.33;;;;;;;13.46;71.10;93744.50;5142997;27;20019;-75
2022/09/12 02:15:01;;;;;;;6.43;1.40;;;;;;;13.40;71.37;93743.94;5161449;27;20157;-74
2022/09/12 02:17:29;;;;;;;2.55;1.40;;;;;;;13.30;71.40;93757.75;5161385;27;20217;-74
2022/09/12 02:19:59;;;;;;;2.85;1.27;;;;;;;13.28;72.37;93751.94;5161316;27;20031;-74
2022/09/12 02:22:28;;;;;;;5.38;1.50;;;;;;;13.16;71.85;93747.31;5161345;27;20018;-74
2022/09/12 02:24:58;;;;;;;3.55;1.70;;;;;;;13.18;72.19;93747.00;5161457;27;20033;-74
2022/09/12 02:27:42;;;;;;;4.22;1.25;;;;;;;13.09;72.08;93747.09;5161050;27;20060;-74
2022/09/12 02:30:08;;;;;;;2.67;1.08;;;;;;;13.10;71.90;93754.00;5161265;27;20046;-74
2022/09/12 02:32:41;;;;;;;3.85;1.08;;;;;;;13.12;72.32;93745.66;5161205;27;20216;-74
2022/09/12 02:35:33;;;;;;;3.22;1.50;;;;;;;13.17;72.47;93753.47;5160992;27;20018;-74
2022/09/12 02:38:22;;;;;;;2.80;1.30;;;;;;;13.16;72.25;93754.59;5160864;27;20029;-74
2022/09/12 02:40:48;;;;;;;4.05;1.33;;;;;;;13.15;72.49;93750.34;5161073;27;20035;-75
2022/09/12 02:43:13;;;;;;;2.55;1.15;;;;;;;13.12;72.65;93745.66;5160843;27;20027;-74
2022/09/12 02:45:39;;;;;;;3.83;1.50;;;;;;;13.14;72.78;93744.19;5161004;27;20027;-75
2022/09/12 02:48:11;;;;;;;3.72;1.55;;;;;;;13.17;72.88;93751.59;5161206;27;20038;-74
2022/09/12 02:50:37;;;;;;;2.00;1.27;;;;;;;13.19;72.43;93759.28;5160779;27;20023;-74
2022/09/12 02:53:04;;;;;;;4.28;1.70;;;;;;;13.14;73.16;93754.13;5160971;27;20050;-74
2022/09/12 02:55:32;;;;;;;6.85;2.33;;;;;;;13.15;73.28;93756.47;5160730;27;20091;-74
2022/09/12 02:57:58;;;;;;;3.05;1.50;;;;;;;13.15;73.35;93755.72;5160446;27;20034;-74
2022/09/12 03:00:25;;;;;;;3.53;2.45;;;;;;;13.08;73.90;93744.75;5160397;27;20070;-74
2022/09/12 03:03:09;;;;;;;2.22;1.42;;;;;;;13.04;73.78;93750.75;5160573;27;20015;-75
2022/09/12 03:05:43;;;;;;;2.97;1.30;;;;;;;13.05;74.03;93752.34;5160693;27;20026;-74
2022/09/12 03:08:11;;;;;;;4.25;1.65;;;;;;;13.08;73.97;93760.81;5160242;27;20054;-74
2022/09/12 03:10:40;;;;;;;4.15;1.70;;;;;;;13.15;73.86;93756.47;5147151;27;20064;-74
2022/09/12 03:13:31;;;;;;;2.25;1.55;;;;;;;13.03;74.12;93759.91;5146834;27;20314;-74
2022/09/12 03:16:38;;;;;;;5.30;1.42;;;;;;;13.04;74.13;93763.34;5146408;27;20666;-74
2022/09/12 03:19:26;;;;;;;2.45;1.45;;;;;;;13.02;74.52;93774.38;5123304;27;20317;-74
2022/09/12 03:21:57;;;;;;;3.53;1.90;;;;;;;13.01;74.78;93777.41;5146271;27;20027;-74
2022/09/12 03:24:28;;;;;;;5.75;1.95;;;;;;;12.99;75.06;93761.69;5146289;27;20015;-74
2022/09/12 03:27:14;;;;;;;6.40;2.10;;;;;;;12.94;74.98;93771.78;5146213;27;20056;-75
2022/09/12 03:29:41;;;;;;;5.20;1.80;;;;;;;12.98;75.70;93762.78;5146385;27;20281;-75
2022/09/12 03:32:06;;;;;;;3.90;1.90;;;;;;;12.97;75.21;93760.44;5146172;27;20046;-75
2022/09/12 03:34:32;;;;;;;3.55;1.95;;;;;;;13.02;75.08;93758.31;5146147;27;20253;-75
2022/09/12 03:36:58;;;;;;;12.73;1.73;;;;;;;13.02;75.23;93757.56;5145952;27;20023;-75
2022/09/12 03:39:25;;;;;;;5.10;1.58;;;;;;;13.03;74.62;93765.25;5146195;27;20015;-75
2022/09/12 03:41:51;;;;;;;14.13;2.13;;;;;;;13.07;74.29;93759.22;5145962;27;20022;-75
2022/09/12 03:44:17;;;;;;;2.38;1.25;;;;;;;13.00;74.56;93762.44;5146047;27;20019;-75
2022/09/12 03:46:43;;;;;;;3.72;1.85;;;;;;;13.01;74.33;93764.81;5145835;27;20232;-75
2022/09/12 03:49:09;;;;;;;3.75;2.20;;;;;;;13.01;74.40;93758.69;5145762;27;20019;-75
2022/09/12 03:51:35;;;;;;;5.38;2.20;;;;;;;13.02;74.72;93757.56;5146028;27;20094;-75
2022/09/12 03:54:01;;;;;;;3.63;2.13;;;;;;;13.02;74.61;93773.59;5145906;27;20201;-75
2022/09/12 03:56:26;;;;;;;11.23;2.80;;;;;;;13.07;74.79;93759.22;5145596;27;20058;-75
2022/09/12 03:58:52;;;;;;;6.85;2.80;;;;;;;13.09;74.51;93762.34;5145838;27;20078;-75
2022/09/12 04:01:18;;;;;;;3.30;2.28;;;;;;;13.12;74.35;93769.75;5145788;27;20280;-75
2022/09/12 04:03:46;;;;;;;4.10;2.60;;;;;;;13.13;74.57;93761.38;5145514;27;20338;-75
2022/09/12 04:06:14;;;;;;;6.55;2.58;;;;;;;13.15;74.14;93758.38;5145709;27;20090;-75
2022/09/12 04:08:41;;;;;;;6.18;3.00;;;;;;;13.09;74.20;93771.19;5145239;27;20061;-75
2022/09/12 04:11:13;;;;;;;3.65;2.85;;;;;;;13.17;74.67;93777.56;5145492;27;20027;-75
2022/09/12 04:13:40;;;;;;;5.63;3.55;;;;;;;13.17;74.03;93770.31;5145417;27;20188;-75
2022/09/12 04:16:07;;;;;;;5.00;3.50;;;;;;;13.17;73.92;93786.38;5145644;27;20214;-75
2022/09/12 04:18:34;;;;;;;5.15;3.35;;;;;;;13.17;74.07;93782.91;5144985;27;20299;-75
2022/09/12 04:21:14;;;;;;;5.32;3.13;;;;;;;13.25;73.60;93779.38;5144134;27;20034;-75
2022/09/12 04:23:40;;;;;;;5.15;3.50;;;;;;;13.21;73.57;93786.50;5145153;27;20023;-75
2022/09/12 04:26:06;;;;;;;6.88;3.90;;;;;;;13.24;73.26;93780.47;5145248;27;20026;-75
2022/09/12 04:28:33;;;;;;;5.30;3.53;;;;;;;13.30;73.68;93786.44;5145097;27;20351;-75
2022/09/12 04:31:06;;;;;;;5.47;3.92;;;;;;;13.35;73.58;93781.66;5144833;27;20031;-75
2022/09/12 04:33:35;;;;;;;6.57;3.35;;;;;;;13.40;73.80;93789.44;5144929;27;20022;-75
2022/09/12 04:36:10;;;;;;;5.60;3.22;;;;;;;13.40;73.72;93800.16;5144782;27;20063;-75
2022/09/12 04:38:35;;;;;;;5.45;3.75;;;;;;;13.48;73.12;93789.69;5144843;27;20316;-75
2022/09/12 04:41:12;;;;;;;4.88;3.72;;;;;;;13.52;73.47;93796.72;5144666;27;20027;-75
2022/09/12 04:43:38;;;;;;;5.13;3.30;;;;;;;13.61;72.82;93780.56;5126514;27;20011;-75
2022/09/12 04:46:09;;;;;;;5.75;4.05;;;;;;;13.71;73.41;93788.16;5144826;27;20023;-75
2022/09/12 04:48:34;;;;;;;7.00;3.40;;;;;;;13.78;72.70;93780.34;5144667;27;20030;-75
2022/09/12 04:51:14;;;;;;;7.63;3.50;;;;;;;13.84;71.92;93797.75;5144414;27;20131;-75
2022/09/12 04:53:40;;;;;;;10.00;3.38;;;;;;;13.93;71.99;93794.19;5144279;27;20095;-75
2022/09/12 04:56:08;;;;;;;7.63;3.13;;;;;;;14.00;72.04;93807.81;5144484;27;20110;-76
2022/09/12 04:58:34;;;;;;;5.00;3.00;;;;;;;14.04;71.27;93806.00;5144221;27;20027;-75
2022/09/12 05:01:08;;;;;;;6.75;3.33;;;;;;;14.04;70.68;93796.09;5144480;27;20095;-75
2022/09/12 05:03:34;;;;;;;5.43;2.40;;;;;;;14.15;70.64;93793.72;5144089;27;20050;-75
2022/09/12 05:06:03;;;;;;;4.32;2.60;;;;;;;14.25;70.07;93795.97;5144311;27;20026;-75
2022/09/12 05:08:28;;;;;;;9.10;3.45;;;;;;;14.33;70.34;93798.84;5144285;27;20237;-75
2022/09/12 05:10:54;;;;;;;6.63;2.53;;;;;;;14.28;69.56;93791.81;5144204;27;20023;-75
2022/09/12 05:13:20;;;;;;;6.10;2.53;;;;;;;14.32;69.59;93784.66;5144287;27;20021;-75
2022/09/12 05:16:00;;;;;;;11.20;4.75;;;;;;;14.39;69.78;93794.81;5144160;27;20043;-75
2022/09/12 05:18:26;;;;;;;10.23;3.15;;;;;;;14.39;69.66;93800.97;5144182;27;20014;-75
2022/09/12 05:20:54;;;;;;;6.38;2.75;;;;;;;14.41;69.12;93797.94;5144109;27;20030;-75
2022/09/12 05:23:20;;;;;;;6.40;2.58;;;;;;;14.44;69.34;93797.25;5144106;27;20264;-75
2022/09/12 05:25:56;;;;;;;3.38;2.28;;;;;;;14.44;68.76;93798.03;5144155;27;20064;-75
2022/09/12 05:28:23;;;;;;;4.82;2.47;;;;;;;14.43;68.79;93801.03;5144085;27;20019;-75
2022/09/12 05:31:03;;;;;;;3.97;2.13;;;;;;;14.40;68.60;93805.19;5143842;27;20034;-75
2022/09/12 05:33:29;;;;;;;3.78;2.63;;;;;;;14.44;68.89;93803.41;5143569;27;20027;-75
2022/09/12 05:35:55;;;;;;;5.50;3.45;;;;;;;14.47;68.95;93790.44;5143757;27;20105;-75
2022/09/12 05:38:20;;;;;;;4.95;3.40;;;;;;;14.53;68.40;93783.72;5143939;27;20041;-75
2022/09/12 05:40:46;;;;;;;4.60;3.22;;;;;;;14.55;68.40;93789.53;5144068;27;20121;-75
2022/09/12 05:43:11;;;;;;;4.32;2.90;;;;;;;14.63;67.87;93800.16;5143888;27;20339;-75
2022/09/12 05:45:40;;;;;;;4.57;3.60;;;;;;;14.60;68.31;93795.47;5144152;27;20026;-75
2022/09/12 05:48:06;;;;;;;7.47;3.38;;;;;;;14.62;67.10;93801.28;5143932;27;20072;-75
2022/09/12 05:50:31;;;;;;;4.15;3.10;;;;;;;14.71;67.01;93792.31;5143673;27;20023;-75
2022/09/12 05:52:57;;;;;;;5.18;2.95;;;;;;;14.67;66.52;93783.38;5143728;27;20030;-75
2022/09/12 05:55:23;;;;;;;5.85;2.97;;;;;;;14.81;67.15;93789.13;5143772;27;20049;-75
2022/09/12 05:57:49;;;;;;;4.40;3.20;;;;;;;14.91;66.39;93783.28;5143779;28;20026;-75
2022/09/12 06:00:16;;;;;;;4.47;3.00;;;;;;;14.93;65.54;93785.63;5143734;27;20054;-75
2022/09/12 06:02:42;;;;;;;7.28;2.80;;;;;;;15.01;65.48;93780.13;5143831;27;20033;-75
2022/09/12 06:05:07;;;;;;;5.38;3.40;;;;;;;15.09;65.82;93772.25;5125519;28;20094;-75
2022/09/12 06:07:34;;;;;;;4.55;3.35;;;;;;;15.17;65.68;93785.53;5143389;28;20022;-75
2022/09/12 06:10:00;;;;;;;4.15;3.10;;;;;;;15.22;65.36;93771.06;5143498;27;20023;-75
2022/09/12 06:12:28;;;;;;;4.82;3.08;;;;;;;15.20;63.61;93770.63;5143733;27;20030;-75
2022/09/12 06:14:54;;;;;;;4.40;3.25;;;;;;;15.15;64.75;93773.56;5143588;27;20019;-76
2022/09/12 06:17:21;;;;;;;4.70;2.45;;;;;;;15.13;64.47;93767.78;5143573;28;20021;-75
2022/09/12 06:19:48;;;;;;;6.22;3.67;;;;;;;15.16;64.85;93772.44;5143665;28;20019;-75
2022/09/12 06:22:14;;;;;;;3.70;2.80;;;;;;;15.14;64.30;93769.31;5143397;27;20015;-75
2022/09/12 06:24:39;;;;;;;4.22;3.22;;;;;;;15.11;64.31;93778.06;5143652;28;20098;-75
2022/09/12 06:27:05;;;;;;;6.00;3.22;;;;;;;15.09;65.24;93788.38;5143536;28;20027;-75
2022/09/12 06:29:31;;;;;;;8.43;3.35;;;;;;;15.05;64.95;93786.34;5143313;28;20023;-75
2022/09/12 06:31:57;;;;;;;3.90;2.92;;;;;;;14.90;65.11;93789.00;5143442;27;20086;-75
2022/09/12 06:34:22;;;;;;;6.07;3.80;;;;;;;14.88;65.87;93793.91;5143357;27;20031;-75
2022/09/12 06:36:48;;;;;;;6.75;3.25;;;;;;;14.84;65.19;93805.34;5143216;28;20019;-75
2022/09/12 06:39:23;;;;;;;4.25;3.10;;;;;;;14.87;65.31;93789.69;5143448;28;20015;-75
2022/09/12 06:41:50;;;;;;;3.72;2.88;;;;;;;14.97;65.38;93803.38;5143169;27;20030;-75
2022/09/12 06:44:21;;;;;;;5.70;3.15;;;;;;;15.09;64.89;93796.41;5143919;27;20361;-75
2022/09/12 06:46:47;;;;;;;5.22;3.13;;;;;;;15.04;65.70;93805.47;5147236;27;20027;-75
2022/09/12 06:49:13;;;;;;;4.80;3.80;;;;;;;15.10;66.35;93798.78;5128990;27;20027;-75
2022/09/12 06:51:40;;;;;;;12.85;4.10;;;;;;;15.33;66.15;93811.63;5147244;27;20053;-75
2022/09/12 06:54:06;;;;;;;4.82;3.50;;;;;;;15.45;65.85;93815.03;5147306;27;20094;-75
2022/09/12 06:56:32;;;;;;;5.85;4.03;;;;;;;15.45;67.14;93816.94;5147109;27;20019;-75
2022/09/12 06:58:58;;;;;;;8.13;3.47;;;;;;;15.49;66.67;93817.00;5146836;27;20182;-75
2022/09/12 07:01:29;;;;;;;5.25;3.40;;;;;;;15.59;65.71;93814.63;5146987;27;20048;-75
2022/09/12 07:03:58;;;;;;;7.68;3.67;;;;;;;15.64;65.51;93819.72;5146775;27;20050;-75
2022/09/12 07:06:31;;;;;;;6.57;3.60;;;;;;;15.69;65.83;93825.97;5146846;27;20132;-75
2022/09/12 07:08:58;;;;;;;7.43;3.53;;;;;;;15.68;66.26;93824.41;5146663;27;20039;-75
2022/09/12 07:11:26;;;;;;;9.07;4.10;;;;;;;15.66;66.08;93816.69;5146500;27;20201;-75
2022/09/12 07:13:54;;;;;;;4.32;3.22;;;;;;;15.71;64.66;93829.84;5146714;27;20026;-75
2022/09/12 07:16:20;;;;;;;5.65;3.65;;;;;;;15.76;65.59;93826.97;5146781;27;20216;-75
2022/09/12 07:18:54;;;;;;;6.38;3.25;;;;;;;15.70;64.21;93832.91;5146431;27;20038;-75
2022/09/12 07:21:20;;;;;;;4.63;3.17;;;;;;;15.65;62.62;93833.94;5146530;27;20027;-75
2022/09/12 07:23:46;;;;;;;3.60;2.78;;;;;;;15.74;63.31;93837.28;5146387;27;20019;-75
2022/09/12 07:26:13;;;;;;;5.78;3.47;;;;;;;15.95;64.40;93820.88;5146544;27;20026;-75
2022/09/12 07:28:39;;;;;;;4.28;3.03;;;;;;;16.16;63.09;93826.00;5146581;27;20018;-75
2022/09/12 07:31:07;;;;;;;7.78;3.58;;;;;;;16.19;62.15;93833.34;5146338;27;20305;-75
2022/09/12 07:33:34;;;;;;;4.50;3.17;;;;;;;16.13;62.22;93826.69;5145877;27;20043;-75
2022/09/12 07:36:02;;;;;;;5.95;3.60;;;;;;;16.09;61.95;93828.50;5146110;27;20086;-75
2022/09/12 07:38:28;;;;;;;6.95;3.90;;;;;;;16.25;61.72;93837.34;5145997;27;20082;-75
2022/09/12 07:40:53;;;;;;;9.57;3.60;;;;;;;16.15;60.20;93840.56;5146113;27;20046;-75
2022/09/12 07:43:19;;;;;;;7.22;4.40;;;;;;;16.09;60.89;93823.13;5146394;27;20038;-75
2022/09/12 07:45:44;;;;;;;5.78;4.05;;;;;;;16.11;61.08;93826.25;5146036;27;20309;-75
2022/09/12 07:48:10;;;;;;;8.98;3.50;;;;;;;15.99;60.24;93835.19;5146069;27;20301;-75
2022/09/12 07:50:35;;;;;;;5.18;4.10;;;;;;;15.98;62.08;93832.88;5146062;27;20193;-75
2022/09/12 07:53:05;;;;;;;6.80;4.68;;;;;;;16.00;62.89;93822.53;5145854;27;20019;-75
2022/09/12 07:55:31;;;;;;;4.75;4.00;;;;;;;15.98;61.41;93825.56;5145679;27;20034;-75
2022/09/12 07:57:56;;;;;;;7.60;5.78;;;;;;;16.17;62.81;93819.47;5145856;27;20090;-75
2022/09/12 08:00:22;;;;;;;5.22;3.90;;;;;;;16.25;61.21;93820.44;5145923;27;20042;-75
2022/09/12 08:02:52;;;;;;;5.45;4.03;;;;;;;16.24;59.88;93813.47;5127140;27;20194;-75
2022/09/12 08:05:18;;;;;;;6.55;3.65;;;;;;;16.19;60.24;93817.22;5145494;27;20034;-74
2022/09/12 08:07:43;;;;;;;5.43;3.85;;;;;;;16.32;60.10;93819.81;5145451;27;20031;-73
2022/09/12 08:10:09;;;;;;;5.43;3.53;;;;;;;16.37;59.61;93822.25;5145612;27;20072;-73
2022/09/12 08:12:35;;;;;;;5.78;3.90;;;;;;;16.39;59.75;93826.13;5145405;27;20019;-73
2022/09/12 08:15:01;;;;;;;5.63;4.05;;;;;;;16.43;60.76;93828.91;5145348;27;20030;-73
2022/09/12 08:17:27;;;;;;;4.70;3.08;;;;;;;16.45;58.69;93829.34;5145272;27;20023;-74
2022/09/12 08:19:53;;;;;;;5.78;3.20;;;;;;;16.41;58.98;93823.09;5145255;27;20031;-73
2022/09/12 08:22:20;;;;;;;3.78;2.97;;;;;;;16.47;58.22;93835.16;5145331;27;20054;-73
2022/09/12 08:24:47;;;;;;;4.15;2.78;;;;;;;16.60;59.01;93815.06;5144780;27;20129;-76
2022/09/12 08:27:13;;;;;;;3.38;2.42;;;;;;;16.70;57.97;93826.41;5145115;27;20023;-75
2022/09/12 08:29:39;;;;;;;4.80;3.20;;;;;;;16.83;57.81;93814.41;5145497;27;20351;-75
2022/09/12 08:32:05;;;;;;;3.13;2.28;;;;;;;16.88;56.75;93824.91;5145101;27;20019;-75
2022/09/12 08:34:30;;;;;;;3.38;2.20;;;;;;;16.83;58.17;93817.09;5144956;27;20027;-75
2022/09/12 08:36:56;;;;;;;4.35;2.95;;;;;;;16.99;58.04;93822.41;5144854;27;20049;-75
2022/09/12 08:39:23;;;;;;;4.65;2.88;;;;;;;17.10;57.21;93818.03;5144906;27;20103;-73
2022/09/12 08:42:00;;;;;;;4.68;2.67;;;;;;;17.10;56.85;93830.72;5144825;27;20031;-73
2022/09/12 08:45:04;;;;;;;5.10;2.78;;;;;;;16.99;57.03;93812.41;5144632;27;20019;-73
2022/09/12 08:47:37;;;;;;;4.60;2.67;;;;;;;17.04;57.49;93822.91;5144711;27;20356;-74
2022/09/12 08:50:08;;;;;;;6.97;2.92;;;;;;;16.97;57.85;93833.53;5144606;27;20046;-74
2022/09/12 08:52:57;;;;;;;3.42;2.38;;;;;;;16.97;57.79;93816.59;5144571;27;20027;-74
2022/09/12 08:55:32;;;;;;;3.13;2.38;;;;;;;17.08;57.64;93819.53;5144574;27;20034;-74
2022/09/12 08:58:00;;;;;;;2.97;2.08;;;;;;;17.12;56.91;93825.75;5144587;27;20049;-74
2022/09/12 09:00:58;;;;;;;3.75;2.40;;;;;;;17.02;54.92;93811.72;5144361;27;20054;-74
2022/09/12 09:03:55;;;;;;;6.30;2.50;;;;;;;17.01;56.07;93823.59;5099011;27;20341;-74
2022/09/12 09:06:58;;;;;;;4.70;2.95;;;;;;;17.10;55.25;93803.78;5144605;27;20221;-74
2022/09/12 09:09:29;;;;;;;8.75;2.53;;;;;;;17.27;55.02;93805.25;5144107;27;20110;-75
2022/09/12 09:12:29;;;;;;;3.88;3.05;;;;;;;17.54;54.90;93792.66;5144227;27;20084;-74
2022/09/12 09:15:00;;;;;;;3.67;2.80;;;;;;;17.74;53.86;93799.53;5144165;27;20043;-74
2022/09/12 09:17:38;;;;;;;3.53;2.80;;;;;;;17.74;53.68;93798.78;5144096;27;20031;-74
2022/09/12 09:20:21;;;;;;;4.50;2.53;;;;;;;17.53;54.33;93804.59;5144316;27;20058;-74
2022/09/12 09:23:00;;;;;;;4.10;2.53;;;;;;;17.43;54.27;93817.50;5144128;27;20019;-74
2022/09/12 09:25:50;;;;;;;6.53;2.58;;;;;;;17.32;53.40;93805.75;5144010;27;20023;-74
2022/09/12 09:28:24;;;;;;;4.63;3.08;;;;;;;17.27;53.51;93789.88;5144094;27;20049;-74
2022/09/12 09:30:50;;;;;;;3.25;2.47;;;;;;;17.31;53.77;93782.63;5143921;27;20022;-74
2022/09/12 09:33:25;;;;;;;2.85;2.30;;;;;;;17.35;54.29;93791.56;5144179;27;20023;-74
2022/09/12 09:35:53;;;;;;;3.47;2.75;;;;;;;17.40;55.39;93799.38;5143852;27;20042;-74
2022/09/12 09:38:40;;;;;;;4.68;3.15;;;;;;;17.60;55.60;93783.13;5144013;27;20272;-74
2022/09/12 09:41:20;;;;;;;4.40;3.05;;;;;;;17.67;54.85;93790.56;5143949;27;20072;-75
2022/09/12 09:43:49;;;;;;;5.93;3.22;;;;;;;17.74;54.23;93788.00;5143906;27;20027;-74
2022/09/12 09:46:15;;;;;;;5.15;2.55;;;;;;;17.79;53.01;93791.19;5143862;27;20030;-75
2022/09/12 09:48:47;;;;;;;3.53;2.72;;;;;;;17.76;52.83;93781.09;5144142;27;20043;-75
2022/09/12 09:51:16;;;;;;;3.15;2.15;;;;;;;17.84;52.43;93780.09;5143818;27;20027;-74
2022/09/12 09:53:47;;;;;;;3.15;2.42;;;;;;;17.88;53.18;93774.00;5143694;27;20115;-74
2022/09/12 09:56:29;;;;;;;8.90;2.55;;;;;;;18.06;52.56;93775.06;5143820;27;20220;-74
2022/09/12 09:58:55;;;;;;;4.85;3.45;;;;;;;18.19;53.47;93773.69;5143600;28;20220;-75
2022/09/12 10:01:21;;;;;;;4.72;3.08;;;;;;;18.15;52.19;93786.34;5143674;28;20030;-75
2022/09/12 10:03:48;;;;;;;4.95;3.00;;;;;;;17.98;53.50;93771.47;5143765;27;20303;-74
2022/09/12 10:06:40;;;;;;;4.70;3.67;;;;;;;17.83;51.89;93781.25;5125175;27;20087;-75
2022/09/12 10:09:33;;;;;;;4.83;3.33;;;;;;;17.74;53.57;93764.50;5143661;28;20042;-74
2022/09/12 10:12:00;;;;;;;;;;;;;;;17.67;53.25;93767.09;5133529;27;20073;-74
2022/09/12 10:14:30;;;;;;;6.20;2.90;;;;;;;17.63;54.32;93793.97;5143488;27;19910;-74
2022/09/12 10:16:57;;;;;;;4.63;3.33;;;;;;;17.71;55.46;93772.53;5143409;28;20019;-74
2022/09/12 10:19:33;;;;;;;10.40;3.35;;;;;;;17.93;54.08;93760.19;5144313;27;20213;-74
2022/09/12 10:21:59;;;;;;;5.25;3.00;;;;;;;17.99;53.39;93788.41;5147361;27;20019;-74
2022/09/12 10:24:57;;;;;;;4.13;3.13;;;;;;;18.07;53.12;93773.13;5147508;27;20019;-74
2022/09/12 10:27:27;;;;;;;6.53;3.22;;;;;;;18.08;53.89;93764.69;5147348;27;20027;-74
2022/09/12 10:29:59;;;;;;;3.58;3.03;;;;;;;18.13;52.70;93775.16;5147522;27;20031;-74
2022/09/12 10:32:34;;;;;;;3.90;2.63;;;;;;;18.28;53.64;93767.25;5147286;27;20019;-75
2022/09/12 10:35:20;;;;;;;5.55;3.25;;;;;;;18.52;52.37;93761.47;5147265;27;20374;-74
2022/09/12 10:38:12;;;;;;;4.65;3.42;;;;;;;18.52;51.02;93780.34;5146507;27;20095;-74
2022/09/12 10:40:41;;;;;;;5.10;3.50;;;;;;;18.56;52.48;93774.97;5147455;27;20023;-74
2022/09/12 10:43:22;;;;;;;4.40;3.35;;;;;;;18.43;50.45;93779.81;5147042;27;20094;-75
2022/09/12 10:45:48;;;;;;;4.80;3.40;;;;;;;18.47;51.62;93777.97;5147351;27;20027;-75
2022/09/12 10:48:23;;;;;;;4.32;3.25;;;;;;;18.41;51.65;93771.31;5147008;27;20324;-75
2022/09/12 10:50:48;;;;;;;4.50;3.50;;;;;;;18.44;52.50;93763.28;5147137;27;20042;-75
2022/09/12 10:53:21;;;;;;;5.70;3.60;;;;;;;18.63;51.82;93765.06;5147222;27;20015;-75
2022/09/12 10:56:08;;;;;;;7.07;3.97;;;;;;;18.81;51.11;93769.94;5147142;27;20027;-75
2022/09/12 10:58:52;;;;;;;7.15;3.72;;;;;;;19.01;50.00;93782.16;5146594;27;20023;-75
2022/09/12 11:01:20;;;;;;;11.52;4.00;;;;;;;18.97;48.58;93780.53;5146780;27;20038;-74
2022/09/12 11:04:13;;;;;;;4.32;3.35;;;;;;;18.89;49.29;93777.00;5146726;27;20023;-75
2022/09/12 11:06:55;;;;;;;;;;;;;;;19.10;49.52;93762.94;5147256;27;20034;-74
2022/09/12 11:09:49;;;;;;;5.75;3.17;;;;;;;18.98;47.52;93787.50;5146489;27;19907;-75
2022/09/12 11:12:26;;;;;;;5.15;2.88;;;;;;;18.96;47.66;93787.88;5146657;27;20106;-75
2022/09/12 11:15:22;;;;;;;7.97;3.40;;;;;;;18.91;48.01;93774.69;5146731;27;20323;-75
2022/09/12 11:17:56;;;;;;;5.05;3.55;;;;;;;19.03;48.01;93773.66;5146544;27;20026;-74
2022/09/12 11:20:57;;;;;;;4.15;3.20;;;;;;;19.08;48.20;93762.53;5146511;27;20076;-75
2022/09/12 11:24:01;;;;;;;4.22;3.22;;;;;;;19.06;48.77;93762.13;5127780;27;20084;-75
2022/09/12 11:26:26;;;;;;;6.00;3.58;;;;;;;19.13;47.48;93777.63;5146550;27;20023;-74
2022/09/12 11:29:33;;;;;;;4.40;3.30;;;;;;;18.92;48.46;93762.75;5146355;27;20321;-75
2022/09/12 11:32:29;;;;;;;7.55;3.83;;;;;;;18.70;49.16;93766.28;5105496;27;20027;-75
2022/09/12 11:35:14;;;;;;;5.63;3.40;;;;;;;18.57;50.02;93769.22;5146227;27;20373;-73
2022/09/12 11:37:54;;;;;;;5.78;4.22;;;;;;;18.66;49.85;93760.84;5146189;27;20030;-74
2022/09/12 11:40:29;;;;;;;7.90;4.63;;;;;;;18.68;50.47;93763.19;5145986;27;20075;-73
2022/09/12 11:43:21;;;;;;;5.05;4.10;;;;;;;18.59;50.45;93753.44;5146151;27;20023;-74
2022/09/12 11:45:47;;;;;;;5.28;4.20;;;;;;;18.83;51.06;93764.97;5145993;27;20019;-74
2022/09/12 11:48:39;;;;;;;6.25;4.40;;;;;;;18.69;51.67;93759.34;5146031;27;20022;-74
2022/09/12 11:51:14;;;;;;;8.43;4.10;;;;;;;18.31;51.44;93756.53;5146018;27;20157;-75
2022/09/12 11:53:43;;;;;;;5.95;3.83;;;;;;;18.31;50.82;93772.72;5145727;27;20369;-74
2022/09/12 11:56:17;;;;;;;9.75;3.47;;;;;;;18.29;50.92;93777.69;5145767;27;20029;-75
2022/09/12 11:58:49;;;;;;;4.78;3.78;;;;;;;18.39;50.39;93773.59;5145500;27;20351;-73
2022/09/12 12:01:21;;;;;;;4.60;3.35;;;;;;;18.42;50.12;93787.16;5145731;27;20059;-74
2022/09/12 12:03:48;;;;;;;4.43;3.55;;;;;;;18.47;49.45;93759.06;5145457;27;20034;-74
2022/09/12 12:06:18;;;;;;;4.15;3.17;;;;;;;18.62;50.23;93766.22;5145724;27;20027;-74
2022/09/12 12:08:44;;;;;;;4.30;3.10;;;;;;;18.74;48.98;93759.03;5145252;27;20042;-74
2022/09/12 12:11:32;;;;;;;4.28;3.42;;;;;;;18.95;48.73;93759.31;5145630;27;20031;-74
2022/09/12 12:14:18;;;;;;;5.35;2.65;;;;;;;19.15;47.04;93753.72;5144693;27;20254;-74
2022/09/12 12:16:44;;;;;;;3.88;2.50;;;;;;;19.18;46.38;93763.81;5145346;27;20015;-74
2022/09/12 12:19:15;;;;;;;5.10;2.67;;;;;;;19.00;47.86;93761.69;5145126;27;20019;-74
2022/09/12 12:21:43;;;;;;;4.25;2.25;;;;;;;19.14;47.23;93760.28;5145211;27;20058;-74
2022/09/12 12:24:08;;;;;;;3.88;2.75;;;;;;;19.26;46.74;93751.94;5126839;27;20097;-74
2022/09/12 12:26:39;;;;;;;4.03;2.33;;;;;;;19.33;46.32;93753.91;5145054;27;20027;-74
2022/09/12 12:29:18;;;;;;;3.93;2.77;;;;;;;19.42;46.51;93738.97;5145431;27;20023;-74
2022/09/12 12:31:59;;;;;;;3.22;2.47;;;;;;;19.58;46.32;93740.63;5144863;27;20285;-74
2022/09/12 12:34:35;;;;;;;4.45;2.85;;;;;;;19.77;46.39;93750.50;5144840;27;20090;-74
2022/09/12 12:37:19;;;;;;;9.85;6.28;;;;;;;19.79;46.07;93738.16;5144835;27;20035;-74
2022/09/12 12:39:46;;;;;;;9.07;5.57;;;;;;;19.78;46.19;93733.13;5144833;27;20075;-74
2022/09/12 12:42:34;;;;;;;4.88;1.85;;;;;;;19.74;45.29;93741.22;5143799;27;20029;-74
2022/09/12 12:44:59;;;;;;;2.90;1.80;;;;;;;19.90;44.45;93740.94;5144723;27;20162;-74
2022/09/12 12:47:31;;;;;;;5.60;2.08;;;;;;;20.17;44.36;93735.31;5144500;27;20021;-74
2022/09/12 12:50:07;;;;;;;5.68;3.35;;;;;;;20.20;44.27;93740.00;5144571;27;20023;-74
2022/09/12 12:52:46;;;;;;;5.40;1.80;;;;;;;19.98;44.76;93744.47;5144557;27;20023;-74
2022/09/12 12:55:19;;;;;;;4.53;2.50;;;;;;;19.89;45.19;93746.75;5144367;27;20011;-74
2022/09/12 12:57:52;;;;;;;11.82;5.38;;;;;;;19.80;45.51;93750.53;5144378;27;20026;-74
2022/09/12 13:00:23;;;;;;;8.60;3.33;;;;;;;19.75;45.51;93767.09;5144417;27;20034;-74
2022/09/12 13:02:55;;;;;;;3.83;2.10;;;;;;;19.66;44.43;93755.78;5144056;27;20222;-73
2022/09/12 13:05:24;;;;;;;3.53;2.28;;;;;;;19.46;45.92;93766.03;5144153;27;20105;-74
2022/09/12 13:08:01;;;;;;;2.92;2.15;;;;;;;19.30;47.32;93763.56;5144033;27;20120;-74
2022/09/12 13:10:29;;;;;;;7.53;2.38;;;;;;;19.04;47.76;93770.59;5144183;27;20094;-73
2022/09/12 13:13:02;;;;;;;5.57;3.30;;;;;;;19.12;47.67;93751.78;5144111;27;20072;-74
2022/09/12 13:15:39;;;;;;;4.82;2.30;;;;;;;19.16;47.61;93768.81;5144287;27;20019;-74
2022/09/12 13:18:10;;;;;;;3.72;2.30;;;;;;;19.14;47.53;93757.59;5143935;27;20047;-74
2022/09/12 13:20:47;;;;;;;4.60;2.10;;;;;;;19.13;47.09;93758.72;5143899;27;20031;-75
2022/09/12 13:23:30;;;;;;;5.30;2.20;;;;;;;19.05;47.76;93782.19;5143775;27;20347;-74
2022/09/12 13:25:58;;;;;;;5.25;3.00;;;;;;;18.89;48.25;93752.69;5144029;27;20320;-74
2022/09/12 13:28:27;;;;;;;5.80;1.98;;;;;;;18.77;48.37;93774.50;5143942;27;20164;-74
2022/09/12 13:31:01;;;;;;;4.28;2.42;;;;;;;18.80;49.14;93739.44;5125502;27;20027;-75